Time;durP1;ratioP1;P1;durP2;ratioP2;P2;SDS_P1;SDS_P2;PMS_P1;PMS_P2;Temp;Humidity;BMP_temperature;BMP_pressure;BME280_temperature;BME280_humidity;BME280_pressure;Samples;Min_cycle;Max_cycle;Signal;HPM_P1;HPM_P2
2022/01/31 00:00:16;;;;;;;12.90;6.10;;;-2.40;99.90;;;;;;2097005;28;20301;-69
2022/01/31 00:01:17;;;;;;;12.90;6.53;;;-2.40;99.90;;;;;;2096162;28;20210;-69
2022/01/31 00:02:18;;;;;;;15.63;5.90;;;-2.40;99.90;;;;;;2096491;28;20188;-69
2022/01/31 00:03:18;;;;;;;13.33;6.17;;;-2.40;99.90;;;;;;2096988;28;20169;-69
2022/01/31 00:04:19;;;;;;;11.57;6.00;;;-2.40;99.90;;;;;;2096966;28;20543;-69
2022/01/31 00:05:20;;;;;;;17.23;6.70;;;-2.40;99.90;;;;;;2087963;28;20177;-69
2022/01/31 00:06:21;;;;;;;12.43;5.23;;;-2.30;99.90;;;;;;2088091;28;20180;-69
2022/01/31 00:07:21;;;;;;;11.83;5.33;;;-2.30;99.90;;;;;;2096887;28;20643;-69
2022/01/31 00:08:24;;;;;;;12.33;5.03;;;-2.20;99.90;;;;;;2097270;28;20186;-69
2022/01/31 00:09:25;;;;;;;13.32;5.38;;;-2.20;99.90;;;;;;2097874;28;20186;-69
2022/01/31 00:10:30;;;;;;;9.45;5.78;;;-2.20;99.90;;;;;;2089744;28;20221;-69
2022/01/31 00:11:33;;;;;;;12.63;5.82;;;-2.20;99.90;;;;;;2097769;28;20236;-69
2022/01/31 00:12:51;;;;;;;12.85;6.20;;;-2.30;99.90;;;;;;2098371;28;20194;-69
2022/01/31 00:14:00;;;;;;;14.27;6.80;;;-2.50;99.90;;;;;;2097827;28;20170;-69
2022/01/31 00:15:03;;;;;;;16.05;5.88;;;-2.60;99.90;;;;;;2097959;28;20182;-69
2022/01/31 00:16:05;;;;;;;12.68;6.05;;;-2.60;99.90;;;;;;2098501;28;20242;-69
2022/01/31 00:17:07;;;;;;;9.98;5.70;;;-2.60;99.90;;;;;;2097806;28;20646;-69
2022/01/31 00:18:08;;;;;;;11.40;5.90;;;-2.50;99.90;;;;;;2097668;28;20221;-69
2022/01/31 00:19:09;;;;;;;11.15;5.03;;;-2.50;99.90;;;;;;2097767;28;20187;-69
2022/01/31 00:20:10;;;;;;;11.87;4.97;;;-2.50;99.90;;;;;;2081067;28;20261;-69
2022/01/31 00:21:11;;;;;;;11.13;5.80;;;-2.40;99.90;;;;;;2089468;28;20223;-69
2022/01/31 00:22:13;;;;;;;10.60;5.53;;;-2.30;99.90;;;;;;2098370;28;20598;-69
2022/01/31 00:23:14;;;;;;;18.73;6.15;;;-2.40;99.90;;;;;;2098299;28;20174;-69
2022/01/31 00:24:15;;;;;;;10.07;5.37;;;-2.50;99.90;;;;;;2097739;28;20650;-69
2022/01/31 00:25:16;;;;;;;13.97;6.67;;;-2.50;99.90;;;;;;2097604;28;20205;-69
2022/01/31 00:26:16;;;;;;;11.83;5.50;;;-2.50;99.90;;;;;;2089380;28;20175;-68
2022/01/31 00:27:17;;;;;;;10.73;5.17;;;-2.50;99.90;;;;;;2089451;28;20288;-68
2022/01/31 00:28:18;;;;;;;12.57;5.73;;;-2.40;99.90;;;;;;2098170;28;20169;-69
2022/01/31 00:29:19;;;;;;;11.30;5.93;;;-2.40;99.90;;;;;;2097660;28;20180;-68
2022/01/31 00:30:19;;;;;;;9.67;5.17;;;-2.40;99.90;;;;;;2089397;28;20218;-68
2022/01/31 00:31:20;;;;;;;11.33;5.17;;;-2.30;99.90;;;;;;2097638;28;20194;-68
2022/01/31 00:32:21;;;;;;;10.53;5.17;;;-2.30;99.90;;;;;;2098270;28;20484;-68
2022/01/31 00:33:21;;;;;;;11.40;5.10;;;-2.30;99.90;;;;;;2098373;28;20182;-68
2022/01/31 00:34:22;;;;;;;12.40;5.43;;;-2.20;99.90;;;;;;2098077;28;20191;-68
2022/01/31 00:35:25;;;;;;;7.83;5.00;;;-2.10;99.90;;;;;;2097745;28;20218;-69
2022/01/31 00:36:26;;;;;;;9.52;5.10;;;-2.00;99.90;;;;;;2097671;28;20183;-68
2022/01/31 00:37:27;;;;;;;10.20;5.30;;;-2.00;99.90;;;;;;2097708;28;20271;-68
2022/01/31 00:38:27;;;;;;;12.17;5.23;;;-1.90;99.90;;;;;;2089450;28;20178;-68
2022/01/31 00:39:28;;;;;;;7.20;4.63;;;-1.90;99.90;;;;;;2097513;28;20183;-68
2022/01/31 00:40:29;;;;;;;9.47;4.93;;;-1.90;99.90;;;;;;2098215;28;20206;-68
2022/01/31 00:41:30;;;;;;;15.33;6.27;;;-2.00;99.90;;;;;;2097521;28;20517;-69
2022/01/31 00:42:31;;;;;;;11.37;5.23;;;-2.00;99.90;;;;;;2097690;28;20677;-68
2022/01/31 00:43:35;;;;;;;15.68;5.10;;;-2.10;99.90;;;;;;2098265;28;20237;-69
2022/01/31 00:44:46;;;;;;;13.82;5.35;;;-2.20;99.90;;;;;;2098082;28;20263;-68
2022/01/31 00:45:58;;;;;;;9.57;4.78;;;-2.10;99.90;;;;;;2097567;28;20182;-68
2022/01/31 00:47:03;;;;;;;13.25;5.07;;;-2.20;99.90;;;;;;2097691;28;20175;-68
2022/01/31 00:48:14;;;;;;;10.65;4.75;;;-2.20;99.90;;;;;;2098248;28;20163;-70
2022/01/31 00:50:39;;;;;;;10.32;4.75;;;-2.10;99.90;;;;;;2098343;28;20185;-68
2022/01/31 00:51:39;;;;;;;11.82;4.70;;;-2.10;99.90;;;;;;2097576;28;20224;-70
2022/01/31 00:52:42;;;;;;;10.53;5.13;;;-2.00;99.90;;;;;;2097725;28;20188;-70
2022/01/31 00:53:43;;;;;;;9.77;4.80;;;-2.00;99.90;;;;;;2097932;28;20184;-70
2022/01/31 00:54:45;;;;;;;9.67;4.70;;;-2.00;99.90;;;;;;2097086;28;20181;-70
2022/01/31 00:55:46;;;;;;;9.23;4.50;;;-2.10;99.90;;;;;;2097436;28;20193;-70
2022/01/31 00:56:46;;;;;;;10.93;5.07;;;-2.20;99.90;;;;;;2097561;28;20215;-70
2022/01/31 00:57:47;;;;;;;9.87;5.13;;;-2.20;99.90;;;;;;2097505;28;20689;-70
2022/01/31 00:58:48;;;;;;;13.73;5.70;;;-2.20;99.90;;;;;;2097538;28;20588;-70
2022/01/31 00:59:51;;;;;;;14.00;5.23;;;-2.20;99.90;;;;;;2097407;28;20201;-70
2022/01/31 01:00:52;;;;;;;13.60;4.97;;;-2.20;99.90;;;;;;2097912;28;20240;-70
2022/01/31 01:01:52;;;;;;;13.73;5.17;;;-2.20;99.90;;;;;;2098057;28;20631;-70
2022/01/31 01:02:53;;;;;;;11.03;4.57;;;-2.20;99.90;;;;;;2097597;28;20213;-70
2022/01/31 01:03:54;;;;;;;13.30;5.90;;;-2.20;99.90;;;;;;2097473;28;20182;-70
2022/01/31 01:04:54;;;;;;;13.53;5.17;;;-2.20;99.90;;;;;;2097992;28;20184;-70
2022/01/31 01:05:55;;;;;;;11.33;5.30;;;-2.20;99.90;;;;;;2097963;28;20178;-70
2022/01/31 01:06:56;;;;;;;10.70;4.73;;;-2.20;99.90;;;;;;2097243;28;20289;-70
2022/01/31 01:07:57;;;;;;;10.90;5.10;;;-2.20;99.90;;;;;;2097347;28;20183;-70
2022/01/31 01:08:59;;;;;;;10.75;5.47;;;-2.20;99.90;;;;;;2097466;28;20194;-70
2022/01/31 01:09:59;;;;;;;15.27;5.17;;;-2.20;99.90;;;;;;2097379;28;20641;-70
2022/01/31 01:11:00;;;;;;;8.80;4.77;;;-2.20;99.90;;;;;;2097377;28;20654;-70
2022/01/31 01:12:01;;;;;;;14.43;5.17;;;-2.20;99.90;;;;;;2097353;28;20189;-70
2022/01/31 01:13:02;;;;;;;12.70;4.67;;;-2.20;99.90;;;;;;2097350;28;20194;-70
2022/01/31 01:14:03;;;;;;;12.32;4.70;;;-2.20;99.90;;;;;;2089062;28;20272;-70
2022/01/31 01:15:05;;;;;;;12.07;4.78;;;-2.20;99.90;;;;;;2089011;28;20194;-70
2022/01/31 01:16:05;;;;;;;8.60;4.55;;;-2.20;99.90;;;;;;2088997;28;20268;-70
2022/01/31 01:17:06;;;;;;;14.67;4.23;;;-2.20;99.90;;;;;;2097376;28;20181;-70
2022/01/31 01:18:07;;;;;;;11.75;5.07;;;-2.10;99.90;;;;;;2097344;28;20186;-70
2022/01/31 01:19:08;;;;;;;11.20;4.77;;;-2.10;99.90;;;;;;2088947;28;20278;-70
2022/01/31 01:20:10;;;;;;;10.53;4.43;;;-2.00;99.90;;;;;;2097202;28;20403;-70
2022/01/31 01:21:10;;;;;;;8.93;4.50;;;-2.00;99.90;;;;;;2097205;28;20210;-70
2022/01/31 01:22:11;;;;;;;10.07;4.63;;;-2.00;99.90;;;;;;2098010;28;20176;-70
2022/01/31 01:23:12;;;;;;;14.52;5.50;;;-2.00;99.90;;;;;;2097211;28;20182;-70
2022/01/31 01:24:14;;;;;;;9.97;5.23;;;-1.90;99.90;;;;;;2089144;28;20229;-69
2022/01/31 01:25:15;;;;;;;10.20;4.78;;;-1.90;99.90;;;;;;2096470;28;20681;-70
2022/01/31 01:26:16;;;;;;;12.05;4.60;;;-1.80;99.90;;;;;;2097223;28;20561;-70
2022/01/31 01:27:21;;;;;;;9.13;4.20;;;-1.80;99.90;;;;;;2089605;28;20166;-70
2022/01/31 01:28:23;;;;;;;7.22;3.72;;;-1.60;99.90;;;;;;2096481;28;20668;-70
2022/01/31 01:29:24;;;;;;;8.57;4.00;;;-1.60;99.90;;;;;;2089480;28;20277;-70
2022/01/31 01:30:25;;;;;;;9.83;4.17;;;-1.50;99.90;;;;;;2089099;28;20237;-70
2022/01/31 01:31:26;;;;;;;12.00;3.80;;;-1.40;99.90;;;;;;2096991;28;20232;-70
2022/01/31 01:32:31;;;;;;;9.90;4.47;;;-1.30;99.90;;;;;;2099875;28;20257;-70
2022/01/31 01:33:38;;;;;;;11.23;5.05;;;-1.40;99.90;;;;;;2103415;28;20666;-70
2022/01/31 01:34:39;;;;;;;10.13;5.28;;;-1.40;99.90;;;;;;2097689;28;20175;-70
2022/01/31 01:35:40;;;;;;;9.67;4.90;;;-1.40;99.90;;;;;;2097872;28;20186;-70
2022/01/31 01:36:42;;;;;;;14.50;5.57;;;-1.50;99.90;;;;;;2097872;28;20183;-70
2022/01/31 01:37:43;;;;;;;11.00;4.57;;;-1.50;99.90;;;;;;2097790;28;20677;-70
2022/01/31 01:38:44;;;;;;;8.87;4.23;;;-1.60;99.90;;;;;;2097854;28;20190;-70
2022/01/31 01:39:46;;;;;;;11.30;4.10;;;-1.60;99.90;;;;;;2097664;28;20300;-70
2022/01/31 01:40:47;;;;;;;10.10;3.28;;;-1.30;99.90;;;;;;2097042;28;20213;-70
2022/01/31 01:41:48;;;;;;;10.02;4.43;;;-1.10;99.90;;;;;;2097181;28;20261;-70
2022/01/31 01:42:49;;;;;;;13.17;4.20;;;-1.00;99.90;;;;;;2097859;28;20223;-70
2022/01/31 01:43:49;;;;;;;9.70;4.47;;;-0.90;99.90;;;;;;2097794;28;20180;-70
2022/01/31 01:44:51;;;;;;;8.17;4.00;;;-0.80;99.90;;;;;;2097626;28;20179;-70
2022/01/31 01:45:54;;;;;;;12.57;3.95;;;-0.70;99.90;;;;;;2096981;28;20263;-70
2022/01/31 01:46:55;;;;;;;13.23;3.97;;;-0.60;99.90;;;;;;2089072;28;20198;-70
2022/01/31 01:47:55;;;;;;;10.37;3.30;;;-0.50;99.90;;;;;;2097164;28;20182;-70
2022/01/31 01:48:56;;;;;;;11.00;3.50;;;-0.30;99.90;;;;;;2103717;28;20175;-70
2022/01/31 01:49:57;;;;;;;6.80;3.27;;;-0.20;99.90;;;;;;2106205;28;20197;-70
2022/01/31 01:50:59;;;;;;;7.10;2.50;;;-0.10;99.90;;;;;;2105496;28;20198;-70
2022/01/31 01:51:59;;;;;;;7.15;3.38;;;0.00;99.90;;;;;;2097340;28;20469;-68
2022/01/31 01:53:01;;;;;;;6.47;3.17;;;0.20;99.90;;;;;;2097235;28;20525;-68
2022/01/31 01:54:02;;;;;;;7.20;3.47;;;0.20;99.90;;;;;;2097269;28;20202;-68
2022/01/31 01:55:03;;;;;;;6.17;4.00;;;0.20;99.90;;;;;;2105449;28;20668;-69
2022/01/31 01:56:04;;;;;;;13.02;3.92;;;0.10;99.90;;;;;;2105970;28;20413;-71
2022/01/31 01:57:05;;;;;;;8.02;4.13;;;0.10;99.90;;;;;;2106066;28;20568;-70
2022/01/31 01:58:15;;;;;;;8.75;4.20;;;0.00;99.90;;;;;;2105429;28;20178;-70
2022/01/31 01:59:16;;;;;;;9.18;4.05;;;-0.10;99.90;;;;;;2105404;28;20159;-70
2022/01/31 02:00:24;;;;;;;7.87;3.40;;;-0.20;99.90;;;;;;2105357;28;20199;-68
2022/01/31 02:01:25;;;;;;;10.85;4.20;;;-0.30;99.90;;;;;;2105875;28;20282;-70
2022/01/31 02:02:25;;;;;;;6.87;3.60;;;-0.40;99.90;;;;;;2105432;28;20163;-70
2022/01/31 02:03:27;;;;;;;11.33;4.10;;;-0.40;99.90;;;;;;2105352;28;20229;-70
2022/01/31 02:04:28;;;;;;;6.85;3.42;;;-0.40;99.90;;;;;;2105086;28;20228;-70
2022/01/31 02:05:29;;;;;;;7.93;3.60;;;-0.30;99.90;;;;;;2105312;28;20684;-70
2022/01/31 02:06:29;;;;;;;9.40;3.70;;;-0.20;99.90;;;;;;2105828;28;20228;-70
2022/01/31 02:07:30;;;;;;;10.17;3.70;;;-0.10;99.90;;;;;;2105937;28;20190;-70
2022/01/31 02:08:40;;;;;;;16.73;3.70;;;0.00;99.90;;;;;;2105894;28;20193;-70
2022/01/31 02:09:44;;;;;;;9.00;3.50;;;0.10;99.90;;;;;;2096867;28;20236;-71
2022/01/31 02:10:46;;;;;;;7.75;3.17;;;0.20;99.90;;;;;;2098392;28;20191;-70
2022/01/31 02:11:47;;;;;;;11.23;3.45;;;0.20;99.90;;;;;;2105489;28;20190;-72
2022/01/31 02:12:48;;;;;;;9.77;3.70;;;0.20;99.90;;;;;;2096853;28;20193;-68
2022/01/31 02:13:49;;;;;;;6.50;2.60;;;0.20;99.90;;;;;;2096963;28;20557;-70
2022/01/31 02:14:49;;;;;;;6.93;3.07;;;0.30;99.90;;;;;;2096762;28;20194;-70
2022/01/31 02:15:51;;;;;;;11.00;3.13;;;0.30;99.90;;;;;;2105280;28;21000;-70
2022/01/31 02:16:53;;;;;;;9.18;3.00;;;0.30;99.90;;;;;;2105843;28;20237;-70
2022/01/31 02:17:53;;;;;;;8.05;3.63;;;0.30;99.90;;;;;;2105072;28;20720;-70
2022/01/31 02:18:55;;;;;;;6.10;2.57;;;0.40;99.90;;;;;;2105009;28;20175;-70
2022/01/31 02:19:56;;;;;;;7.88;3.20;;;0.50;99.90;;;;;;2105134;28;20561;-70
2022/01/31 02:20:57;;;;;;;12.43;3.13;;;0.50;99.90;;;;;;2105091;28;20179;-70
2022/01/31 02:21:58;;;;;;;5.47;2.75;;;0.50;99.90;;;;;;2105186;28;20213;-68
2022/01/31 02:22:58;;;;;;;9.60;2.87;;;0.40;99.90;;;;;;2096621;28;20175;-70
2022/01/31 02:23:59;;;;;;;16.00;3.87;;;0.40;99.90;;;;;;2096839;28;20182;-70
2022/01/31 02:25:00;;;;;;;8.37;3.00;;;0.40;99.90;;;;;;2096561;28;20274;-70
2022/01/31 02:26:04;;;;;;;9.73;3.07;;;0.50;99.90;;;;;;2105193;28;20276;-70
2022/01/31 02:27:05;;;;;;;9.13;3.05;;;0.50;99.90;;;;;;2105175;28;20178;-70
2022/01/31 02:28:06;;;;;;;5.53;2.90;;;0.60;99.90;;;;;;2105220;28;20178;-68
2022/01/31 02:29:08;;;;;;;6.00;2.83;;;0.50;99.90;;;;;;2105681;28;20612;-70
2022/01/31 02:30:14;;;;;;;7.13;2.58;;;0.60;99.90;;;;;;2105935;28;20224;-70
2022/01/31 02:31:15;;;;;;;9.07;2.47;;;0.50;99.90;;;;;;2104631;28;20187;-70
2022/01/31 02:32:20;;;;;;;7.13;2.37;;;0.60;99.90;;;;;;2105200;28;20171;-70
2022/01/31 02:33:21;;;;;;;3.75;2.13;;;0.60;99.90;;;;;;2105067;28;20167;-70
2022/01/31 02:34:21;;;;;;;6.95;2.50;;;0.60;99.90;;;;;;2097167;28;20457;-70
2022/01/31 02:35:22;;;;;;;7.17;2.30;;;0.60;99.90;;;;;;2105015;28;20183;-70
2022/01/31 02:36:23;;;;;;;4.53;2.00;;;0.70;99.90;;;;;;2105143;28;20193;-70
2022/01/31 02:37:23;;;;;;;6.20;2.40;;;0.70;99.90;;;;;;2105766;28;20170;-70
2022/01/31 02:38:25;;;;;;;8.17;3.10;;;0.70;99.90;;;;;;2105143;28;20171;-70
2022/01/31 02:39:26;;;;;;;7.00;2.65;;;0.70;99.90;;;;;;2097471;28;20217;-70
2022/01/31 02:40:28;;;;;;;10.60;2.53;;;0.70;99.90;;;;;;2105170;28;20215;-70
2022/01/31 02:41:30;;;;;;;9.82;2.70;;;0.60;99.90;;;;;;2105317;28;20301;-70
2022/01/31 02:42:31;;;;;;;10.60;3.28;;;0.70;99.90;;;;;;2105266;28;20193;-70
2022/01/31 02:43:34;;;;;;;9.40;2.90;;;0.70;99.90;;;;;;2105923;28;20218;-70
2022/01/31 02:44:43;;;;;;;11.63;4.10;;;0.70;99.90;;;;;;2104943;28;20183;-70
2022/01/31 02:45:44;;;;;;;8.20;2.70;;;0.70;99.90;;;;;;2105192;28;20160;-70
2022/01/31 02:46:50;;;;;;;7.22;2.50;;;0.70;99.90;;;;;;2105865;28;20174;-70
2022/01/31 02:47:55;;;;;;;7.70;3.20;;;0.70;99.90;;;;;;2105759;28;20186;-70
2022/01/31 02:48:57;;;;;;;7.70;2.85;;;0.70;99.90;;;;;;2097453;28;20297;-71
2022/01/31 02:50:01;;;;;;;4.13;2.33;;;0.70;99.90;;;;;;2096651;28;20183;-70
2022/01/31 02:51:08;;;;;;;7.72;3.08;;;0.70;99.90;;;;;;2096651;28;20253;-70
2022/01/31 02:52:12;;;;;;;5.68;1.98;;;0.70;99.90;;;;;;2096784;28;20171;-70
2022/01/31 02:53:25;;;;;;;6.55;2.80;;;0.70;99.90;;;;;;2096942;28;20618;-70
2022/01/31 02:54:27;;;;;;;11.27;2.70;;;0.70;99.90;;;;;;2097361;28;20215;-70
2022/01/31 02:55:28;;;;;;;6.03;2.58;;;0.70;99.90;;;;;;2097435;28;20202;-70
2022/01/31 02:56:29;;;;;;;9.63;3.30;;;0.70;99.90;;;;;;2097343;28;20180;-70
2022/01/31 02:57:29;;;;;;;4.63;2.50;;;0.70;99.90;;;;;;2097519;28;20172;-70
2022/01/31 02:58:30;;;;;;;7.73;2.67;;;0.70;99.90;;;;;;2097453;28;20216;-70
2022/01/31 02:59:34;;;;;;;9.80;2.70;;;0.70;99.90;;;;;;2096622;28;20190;-70
2022/01/31 03:00:36;;;;;;;6.38;2.70;;;0.80;99.90;;;;;;2096606;28;20218;-70
2022/01/31 03:01:37;;;;;;;8.40;3.58;;;0.80;99.90;;;;;;2089028;28;20200;-70
2022/01/31 03:02:38;;;;;;;4.82;2.60;;;0.90;99.90;;;;;;2096580;28;20238;-70
2022/01/31 03:03:38;;;;;;;6.67;2.63;;;0.90;99.90;;;;;;2097506;28;20581;-70
2022/01/31 03:04:39;;;;;;;8.10;2.60;;;0.90;99.90;;;;;;2097305;28;20262;-70
2022/01/31 03:05:40;;;;;;;9.98;3.15;;;0.90;99.90;;;;;;2097458;28;20240;-70
2022/01/31 03:06:47;;;;;;;7.07;2.77;;;0.90;99.90;;;;;;2097194;28;20183;-70
2022/01/31 03:07:48;;;;;;;5.75;3.00;;;0.90;99.90;;;;;;2096659;28;20214;-70
2022/01/31 03:08:48;;;;;;;9.50;2.97;;;0.90;99.90;;;;;;2096786;28;20632;-70
2022/01/31 03:09:49;;;;;;;5.60;2.70;;;0.90;99.90;;;;;;2097312;28;20628;-70
2022/01/31 03:10:51;;;;;;;8.97;3.73;;;0.90;99.90;;;;;;2096440;28;20247;-70
2022/01/31 03:11:52;;;;;;;8.10;3.08;;;0.80;99.90;;;;;;2096662;28;20192;-70
2022/01/31 03:12:53;;;;;;;9.83;3.40;;;0.80;99.90;;;;;;2096653;28;20219;-70
2022/01/31 03:13:53;;;;;;;9.27;3.50;;;0.60;99.90;;;;;;2096554;28;20183;-71
2022/01/31 03:14:54;;;;;;;6.47;2.97;;;0.60;99.90;;;;;;2096410;28;20179;-70
2022/01/31 03:15:56;;;;;;;7.53;3.60;;;0.60;99.90;;;;;;2097234;28;20701;-70
2022/01/31 03:16:57;;;;;;;8.60;3.20;;;0.50;99.90;;;;;;2097021;28;20183;-70
2022/01/31 03:17:58;;;;;;;7.87;3.20;;;0.50;99.90;;;;;;2097291;28;20179;-70
2022/01/31 03:18:59;;;;;;;10.43;3.17;;;0.50;99.90;;;;;;2097038;28;20179;-70
2022/01/31 03:20:00;;;;;;;6.13;3.10;;;0.60;99.90;;;;;;2097162;28;20191;-70
2022/01/31 03:21:00;;;;;;;8.50;2.90;;;0.70;99.90;;;;;;2097159;28;20199;-70
2022/01/31 03:22:01;;;;;;;4.97;3.37;;;0.70;99.90;;;;;;2096552;28;20603;-70
2022/01/31 03:23:02;;;;;;;8.53;3.63;;;0.70;99.90;;;;;;2096612;28;20201;-70
2022/01/31 03:24:05;;;;;;;8.60;3.13;;;0.70;99.90;;;;;;2096404;28;20688;-70
2022/01/31 03:25:06;;;;;;;11.48;3.85;;;0.70;99.90;;;;;;2088337;28;20664;-70
2022/01/31 03:26:06;;;;;;;6.53;3.50;;;0.70;99.90;;;;;;2096628;28;20179;-70
2022/01/31 03:27:07;;;;;;;7.73;2.43;;;0.70;99.90;;;;;;2096459;28;20184;-70
2022/01/31 03:28:07;;;;;;;9.33;3.73;;;0.60;99.90;;;;;;2096554;28;20179;-70
2022/01/31 03:29:08;;;;;;;5.40;2.67;;;0.60;99.90;;;;;;2097032;28;20183;-70
2022/01/31 03:30:15;;;;;;;8.77;3.30;;;0.60;99.90;;;;;;2096587;28;20233;-70
2022/01/31 03:31:18;;;;;;;8.43;3.20;;;0.60;99.90;;;;;;2096735;28;20192;-70
2022/01/31 03:32:19;;;;;;;7.05;2.92;;;0.60;99.90;;;;;;2096893;28;20180;-70
2022/01/31 03:33:20;;;;;;;8.47;3.50;;;0.60;99.90;;;;;;2104453;28;20171;-70
2022/01/31 03:34:20;;;;;;;7.03;3.37;;;0.60;99.90;;;;;;2097068;28;20207;-70
2022/01/31 03:35:23;;;;;;;7.10;2.90;;;0.60;99.90;;;;;;2097252;28;20233;-70
2022/01/31 03:36:23;;;;;;;8.88;2.85;;;0.60;99.90;;;;;;2104816;28;20175;-70
2022/01/31 03:37:24;;;;;;;6.47;2.80;;;0.60;99.90;;;;;;2096576;28;20237;-70
2022/01/31 03:38:25;;;;;;;6.37;2.50;;;0.60;99.90;;;;;;2096434;28;20176;-70
2022/01/31 03:39:26;;;;;;;9.43;3.13;;;0.60;99.90;;;;;;2096911;28;20180;-70
2022/01/31 03:40:27;;;;;;;8.83;2.90;;;0.60;99.90;;;;;;2104729;28;20203;-70
2022/01/31 03:41:27;;;;;;;6.70;2.78;;;0.60;99.90;;;;;;2104714;28;20218;-70
2022/01/31 03:42:28;;;;;;;5.50;2.43;;;0.50;99.90;;;;;;2104677;28;20244;-70
2022/01/31 03:43:29;;;;;;;7.70;2.63;;;0.50;99.90;;;;;;2105420;28;20175;-70
2022/01/31 03:44:30;;;;;;;5.37;2.60;;;0.60;99.90;;;;;;2098418;28;20187;-70
2022/01/31 03:45:34;;;;;;;4.27;2.27;;;0.60;99.90;;;;;;2098123;28;20179;-70
2022/01/31 03:46:35;;;;;;;9.05;2.80;;;0.60;99.90;;;;;;2098028;28;20980;-70
2022/01/31 03:47:43;;;;;;;6.53;2.60;;;0.60;99.90;;;;;;2090155;28;20311;-70
2022/01/31 03:48:45;;;;;;;5.45;2.38;;;0.60;99.90;;;;;;2090626;28;20670;-70
2022/01/31 03:49:47;;;;;;;9.20;2.42;;;0.60;99.90;;;;;;2098922;28;20175;-70
2022/01/31 03:50:48;;;;;;;7.30;2.45;;;0.60;99.90;;;;;;2106237;28;20187;-70
2022/01/31 03:51:49;;;;;;;11.17;3.00;;;0.60;99.90;;;;;;2098776;28;20188;-71
2022/01/31 03:52:52;;;;;;;4.60;2.40;;;0.60;99.90;;;;;;2097495;28;20184;-70
2022/01/31 03:53:53;;;;;;;5.07;2.20;;;0.60;99.90;;;;;;2101541;28;21071;-70
2022/01/31 03:54:56;;;;;;;5.23;2.27;;;0.60;99.90;;;;;;2100095;28;20188;-70
2022/01/31 03:55:57;;;;;;;8.40;2.38;;;0.60;99.90;;;;;;2097824;28;20619;-70
2022/01/31 03:56:58;;;;;;;3.63;2.20;;;0.60;99.90;;;;;;2089947;28;20180;-70
2022/01/31 03:57:58;;;;;;;7.27;3.27;;;0.50;99.90;;;;;;2089688;28;20172;-70
2022/01/31 03:59:00;;;;;;;6.03;2.57;;;0.50;99.90;;;;;;2097909;28;20191;-70
2022/01/31 04:00:04;;;;;;;6.55;2.53;;;0.50;99.90;;;;;;2098455;28;20168;-70
2022/01/31 04:01:05;;;;;;;4.07;2.10;;;0.50;99.90;;;;;;2097689;28;20211;-70
2022/01/31 04:02:07;;;;;;;3.37;1.80;;;0.50;99.90;;;;;;2097929;28;20184;-70
2022/01/31 04:03:08;;;;;;;5.18;2.65;;;0.50;99.90;;;;;;2097831;28;20722;-70
2022/01/31 04:04:10;;;;;;;5.47;2.03;;;0.50;99.90;;;;;;2081403;28;20193;-70
2022/01/31 04:05:12;;;;;;;6.75;2.35;;;0.60;99.90;;;;;;2089718;28;20176;-70
2022/01/31 04:06:12;;;;;;;7.38;2.28;;;0.70;99.90;;;;;;2097830;28;20229;-70
2022/01/31 04:07:13;;;;;;;7.67;2.20;;;0.70;99.90;;;;;;2098034;28;20398;-70
2022/01/31 04:08:14;;;;;;;3.53;1.97;;;0.70;99.90;;;;;;2097714;28;20206;-70
2022/01/31 04:09:14;;;;;;;10.40;2.67;;;0.70;99.90;;;;;;2089719;28;20182;-70
2022/01/31 04:10:15;;;;;;;4.57;1.97;;;0.70;99.90;;;;;;2089531;28;20652;-70
2022/01/31 04:11:16;;;;;;;8.70;2.23;;;0.80;99.90;;;;;;2097936;28;20664;-70
2022/01/31 04:12:17;;;;;;;7.57;2.60;;;0.80;99.90;;;;;;2097911;28;20228;-70
2022/01/31 04:13:18;;;;;;;6.70;2.30;;;0.90;99.30;;;;;;2097895;28;20206;-70
2022/01/31 04:14:19;;;;;;;12.60;2.50;;;0.90;99.00;;;;;;2089351;28;20648;-71
2022/01/31 04:15:19;;;;;;;8.03;2.33;;;0.90;98.90;;;;;;2081443;28;20181;-70
2022/01/31 04:16:20;;;;;;;4.97;2.53;;;1.00;98.60;;;;;;2097568;28;20190;-71
2022/01/31 04:17:21;;;;;;;6.63;2.23;;;1.00;98.30;;;;;;2097767;28;20230;-70
2022/01/31 04:18:22;;;;;;;3.08;1.80;;;1.00;98.40;;;;;;2097733;28;20196;-70
2022/01/31 04:19:23;;;;;;;9.53;2.70;;;1.00;98.50;;;;;;2098328;28;20290;-70
2022/01/31 04:20:24;;;;;;;3.85;2.08;;;1.10;98.90;;;;;;2097700;28;20257;-70
2022/01/31 04:21:25;;;;;;;4.60;2.30;;;1.10;98.30;;;;;;2097903;28;20192;-70
2022/01/31 04:22:29;;;;;;;5.73;2.43;;;1.20;97.80;;;;;;2098410;28;20199;-70
2022/01/31 04:23:30;;;;;;;5.00;2.00;;;1.20;97.20;;;;;;2097765;28;20227;-70
2022/01/31 04:24:33;;;;;;;7.20;2.33;;;1.30;97.10;;;;;;2097598;28;20266;-70
2022/01/31 04:25:54;;;;;;;6.53;1.90;;;1.20;97.70;;;;;;2098583;28;20168;-70
2022/01/31 04:26:59;;;;;;;5.15;2.00;;;1.30;97.70;;;;;;2097823;28;20170;-70
2022/01/31 04:28:04;;;;;;;7.40;2.40;;;1.30;97.10;;;;;;2092707;28;20229;-70
2022/01/31 04:29:08;;;;;;;6.07;2.20;;;1.30;97.40;;;;;;2090591;28;20200;-70
2022/01/31 04:30:11;;;;;;;7.95;2.75;;;1.40;97.50;;;;;;2097878;28;20676;-70
2022/01/31 04:32:16;;;;;;;6.75;2.28;;;1.40;97.40;;;;;;2097876;28;20184;-70
2022/01/31 04:33:17;;;;;;;4.65;2.15;;;1.40;96.90;;;;;;2097615;28;20213;-70
2022/01/31 04:34:18;;;;;;;6.33;2.17;;;1.50;97.70;;;;;;2097687;28;20733;-71
2022/01/31 04:35:18;;;;;;;4.68;2.00;;;1.50;97.30;;;;;;2097524;28;20247;-70
2022/01/31 04:36:19;;;;;;;4.60;2.20;;;1.50;97.80;;;;;;2097637;28;20247;-70
2022/01/31 04:37:20;;;;;;;6.73;1.63;;;1.50;97.00;;;;;;2097643;28;20218;-70
2022/01/31 04:38:21;;;;;;;5.30;2.03;;;1.50;97.10;;;;;;2097496;28;20202;-70
2022/01/31 04:39:22;;;;;;;6.75;1.85;;;1.50;97.40;;;;;;2098075;28;20302;-70
2022/01/31 04:40:23;;;;;;;6.23;2.00;;;1.60;97.40;;;;;;2098237;28;20616;-70
2022/01/31 04:41:23;;;;;;;5.70;2.33;;;1.50;97.90;;;;;;2098168;28;20663;-70
2022/01/31 04:42:25;;;;;;;5.67;2.00;;;1.50;97.90;;;;;;2097612;28;20286;-70
2022/01/31 04:43:26;;;;;;;4.47;1.60;;;1.60;98.00;;;;;;2097443;28;20817;-70
2022/01/31 04:44:26;;;;;;;6.17;2.37;;;1.60;97.60;;;;;;2089060;28;20180;-70
2022/01/31 04:45:27;;;;;;;4.60;2.10;;;1.50;98.10;;;;;;2089157;28;20426;-70
2022/01/31 04:46:29;;;;;;;7.03;2.23;;;1.50;98.40;;;;;;2097501;28;20171;-70
2022/01/31 04:47:30;;;;;;;6.78;2.00;;;1.50;98.50;;;;;;2089445;28;20188;-70
2022/01/31 04:48:31;;;;;;;6.50;1.70;;;1.50;98.50;;;;;;2089369;28;20926;-70
2022/01/31 04:49:34;;;;;;;4.53;2.10;;;1.50;98.60;;;;;;2088991;28;20598;-70
2022/01/31 04:50:34;;;;;;;8.52;2.35;;;1.50;98.90;;;;;;2081278;28;20186;-70
2022/01/31 04:51:35;;;;;;;6.13;1.97;;;1.60;99.10;;;;;;2089336;28;20209;-70
2022/01/31 04:52:38;;;;;;;10.10;2.63;;;1.60;99.00;;;;;;2097530;28;20588;-70
2022/01/31 04:53:39;;;;;;;5.47;1.95;;;1.70;98.50;;;;;;2105725;28;20188;-70
2022/01/31 04:54:41;;;;;;;4.53;1.87;;;1.70;98.00;;;;;;2096878;28;20736;-70
2022/01/31 04:55:42;;;;;;;11.73;2.70;;;1.70;98.50;;;;;;2097485;28;20331;-70
2022/01/31 04:56:44;;;;;;;7.53;2.27;;;1.70;98.80;;;;;;2097368;28;20190;-70
2022/01/31 04:57:44;;;;;;;4.15;2.20;;;1.70;99.00;;;;;;2089248;28;20271;-70
2022/01/31 04:58:45;;;;;;;5.27;1.90;;;1.70;98.90;;;;;;2097369;28;20587;-70
2022/01/31 04:59:48;;;;;;;11.70;2.58;;;1.70;98.60;;;;;;2097241;28;20180;-70
2022/01/31 05:00:50;;;;;;;6.03;2.38;;;1.80;98.70;;;;;;2097085;28;20209;-70
2022/01/31 05:01:50;;;;;;;7.57;2.35;;;1.80;99.10;;;;;;2097468;28;20639;-70
2022/01/31 05:02:51;;;;;;;8.07;2.50;;;1.80;99.10;;;;;;2105680;28;20266;-70
2022/01/31 05:03:52;;;;;;;9.07;2.77;;;1.80;99.40;;;;;;2097931;28;20195;-70
2022/01/31 05:04:52;;;;;;;4.10;1.57;;;1.80;99.00;;;;;;2097723;28;20431;-70
2022/01/31 05:05:53;;;;;;;6.47;2.07;;;1.80;99.20;;;;;;2097423;28;20243;-70
2022/01/31 05:06:54;;;;;;;6.00;2.17;;;1.80;99.60;;;;;;2097432;28;20216;-70
2022/01/31 05:07:55;;;;;;;8.93;2.63;;;1.80;99.70;;;;;;2097972;28;20179;-70
2022/01/31 05:08:56;;;;;;;6.20;2.00;;;1.80;99.10;;;;;;2098128;28;20183;-70
2022/01/31 05:09:57;;;;;;;5.00;2.30;;;1.90;99.20;;;;;;2098015;28;20177;-70
2022/01/31 05:10:57;;;;;;;6.43;2.57;;;1.90;98.80;;;;;;2105378;28;20579;-70
2022/01/31 05:11:58;;;;;;;5.27;2.93;;;1.90;99.30;;;;;;2105755;28;20603;-70
2022/01/31 05:12:59;;;;;;;4.68;2.00;;;1.90;99.10;;;;;;2105656;28;20181;-70
2022/01/31 05:14:00;;;;;;;4.20;1.73;;;2.00;98.80;;;;;;2097315;28;20184;-70
2022/01/31 05:15:01;;;;;;;8.83;2.53;;;2.00;98.60;;;;;;2096945;28;20191;-70
2022/01/31 05:16:01;;;;;;;5.10;2.77;;;2.00;98.70;;;;;;2105576;28;20187;-70
2022/01/31 05:17:02;;;;;;;3.60;2.63;;;2.10;98.70;;;;;;2098039;28;20218;-70
2022/01/31 05:18:03;;;;;;;6.95;2.67;;;2.00;98.80;;;;;;2097976;28;20236;-71
2022/01/31 05:19:04;;;;;;;3.90;2.00;;;2.00;99.40;;;;;;2097136;28;20249;-70
2022/01/31 05:20:05;;;;;;;7.73;2.20;;;1.90;99.70;;;;;;2097413;28;20210;-70
2022/01/31 05:21:08;;;;;;;8.25;4.47;;;1.90;99.90;;;;;;2097342;28;20227;-70
2022/01/31 05:22:09;;;;;;;8.85;3.25;;;1.90;99.90;;;;;;2097876;28;20176;-70
2022/01/31 05:23:09;;;;;;;6.30;4.67;;;2.00;99.90;;;;;;2097350;28;20185;-70
2022/01/31 05:24:10;;;;;;;8.90;7.60;;;2.10;99.90;;;;;;2097382;28;20176;-70
2022/01/31 05:25:11;;;;;;;11.13;5.90;;;2.10;99.60;;;;;;2088770;28;20173;-70